Time;durP1;ratioP1;P1;durP2;ratioP2;P2;SDS_P1;SDS_P2;PMS_P1;PMS_P2;Temp;Humidity;BMP_temperature;BMP_pressure;BME280_temperature;BME280_humidity;BME280_pressure;Samples;Min_cycle;Max_cycle;Signal;HPM_P1;HPM_P2
2023/02/15 00:01:31;;;;;;;1.10;1.00;;;1.20;99.90;;;;;;5075408;28;20228;-73
2023/02/15 00:03:56;;;;;;;0.70;0.70;;;1.20;99.90;;;;;;5075534;28;20687;-73
2023/02/15 00:06:22;;;;;;;0.68;0.68;;;1.20;99.90;;;;;;5074984;28;20303;-73
2023/02/15 00:08:48;;;;;;;0.60;0.60;;;1.20;99.90;;;;;;5075766;28;20220;-73
2023/02/15 00:11:39;;;;;;;0.82;0.82;;;1.20;99.90;;;;;;5075745;28;20196;-73
2023/02/15 00:14:04;;;;;;;0.52;0.52;;;1.20;99.90;;;;;;5075452;28;20213;-73
2023/02/15 00:16:30;;;;;;;0.50;0.50;;;1.20;99.90;;;;;;5075034;28;20197;-73
2023/02/15 00:18:56;;;;;;;0.50;0.50;;;1.20;99.90;;;;;;5075531;28;20204;-73
2023/02/15 00:21:21;;;;;;;0.50;0.50;;;1.20;99.90;;;;;;5070840;28;20208;-73
2023/02/15 00:23:47;;;;;;;0.60;0.60;;;1.20;99.90;;;;;;5095846;28;20188;-70
2023/02/15 00:26:13;;;;;;;0.70;0.70;;;1.20;99.90;;;;;;5095772;28;20550;-70
2023/02/15 00:28:38;;;;;;;0.50;0.50;;;1.20;99.90;;;;;;5077261;28;20245;-70
2023/02/15 00:31:10;;;;;;;0.50;0.50;;;1.20;99.90;;;;;;5077545;28;20203;-70
2023/02/15 00:33:36;;;;;;;1.95;1.85;;;1.20;99.90;;;;;;5095469;28;20695;-70
2023/02/15 00:36:04;;;;;;;0.60;0.60;;;1.20;99.90;;;;;;5095592;28;20662;-71
2023/02/15 00:38:31;;;;;;;2.22;1.50;;;1.20;99.90;;;;;;5095159;28;20220;-70
2023/02/15 00:40:58;;;;;;;0.70;0.70;;;1.30;99.90;;;;;;5095276;28;20689;-70
2023/02/15 00:43:25;;;;;;;0.52;0.52;;;1.30;99.90;;;;;;5091520;28;20561;-70
2023/02/15 00:45:51;;;;;;;1.27;1.17;;;1.30;99.90;;;;;;5074924;28;20196;-71
2023/02/15 00:48:18;;;;;;;0.60;0.60;;;1.30;99.90;;;;;;5074825;28;20189;-70
2023/02/15 00:50:50;;;;;;;0.50;0.50;;;1.30;99.90;;;;;;5074691;28;20193;-71
2023/02/15 00:53:15;;;;;;;0.70;0.70;;;1.30;99.90;;;;;;5056270;28;20212;-70
2023/02/15 00:55:41;;;;;;;0.70;0.70;;;1.30;99.90;;;;;;5073585;28;20189;-70
2023/02/15 00:58:08;;;;;;;0.70;0.70;;;1.30;99.90;;;;;;5074456;28;20189;-70
2023/02/15 01:00:33;;;;;;;0.70;0.70;;;1.30;99.90;;;;;;5074268;28;20192;-70
2023/02/15 01:02:59;;;;;;;0.52;0.52;;;1.30;99.90;;;;;;5057354;28;20680;-70
2023/02/15 01:05:25;;;;;;;0.80;0.80;;;1.30;99.90;;;;;;5054352;28;20197;-71
2023/02/15 01:07:51;;;;;;;0.63;0.63;;;1.30;99.90;;;;;;5054719;28;20199;-70
2023/02/15 01:10:16;;;;;;;0.60;0.60;;;1.40;99.90;;;;;;5054529;28;20281;-70
2023/02/15 01:12:42;;;;;;;0.47;0.47;;;1.40;99.90;;;;;;5057995;28;20278;-72
2023/02/15 01:15:09;;;;;;;0.68;0.68;;;1.40;99.90;;;;;;5074427;28;20674;-72
2023/02/15 01:17:34;;;;;;;0.70;0.70;;;1.50;99.90;;;;;;5087293;28;20207;-72
2023/02/15 01:20:00;;;;;;;0.70;0.70;;;1.50;99.90;;;;;;5094627;28;20188;-72
2023/02/15 01:22:26;;;;;;;0.73;0.73;;;1.50;99.90;;;;;;5093790;28;20287;-72
2023/02/15 01:24:52;;;;;;;0.60;0.60;;;1.50;99.90;;;;;;5076567;28;20210;-72
2023/02/15 01:27:18;;;;;;;0.50;0.50;;;1.60;99.90;;;;;;5094345;28;20253;-72
2023/02/15 01:29:44;;;;;;;1.00;1.00;;;1.60;99.90;;;;;;5094517;28;20206;-72
2023/02/15 01:32:10;;;;;;;0.50;0.50;;;1.80;99.90;;;;;;5093939;28;20600;-72
2023/02/15 01:34:35;;;;;;;1.02;1.00;;;1.80;99.90;;;;;;5094037;28;20670;-72
2023/02/15 01:37:01;;;;;;;0.68;0.68;;;1.90;99.90;;;;;;5094014;28;20196;-72
2023/02/15 01:39:27;;;;;;;0.63;0.63;;;1.90;99.90;;;;;;5092507;28;20195;-72
2023/02/15 01:41:53;;;;;;;1.13;1.13;;;2.00;99.90;;;;;;5073903;28;20639;-72
2023/02/15 01:44:48;;;;;;;0.95;0.95;;;2.00;99.90;;;;;;5073722;28;20209;-72
2023/02/15 01:47:26;;;;;;;0.68;0.68;;;2.00;99.90;;;;;;5073724;28;20230;-72
2023/02/15 01:50:05;;;;;;;0.70;0.70;;;2.10;99.90;;;;;;5073785;28;20189;-72
2023/02/15 01:52:30;;;;;;;1.30;1.25;;;2.10;99.90;;;;;;5073353;28;20224;-71
2023/02/15 01:54:57;;;;;;;0.60;0.60;;;2.10;99.90;;;;;;5054580;28;20227;-72
2023/02/15 01:57:25;;;;;;;0.60;0.60;;;2.10;99.90;;;;;;5073377;28;20197;-72
2023/02/15 01:59:56;;;;;;;3.75;1.95;;;2.10;99.90;;;;;;5073490;28;20219;-72
2023/02/15 02:02:24;;;;;;;1.00;1.00;;;2.10;99.90;;;;;;5061227;28;20256;-72
2023/02/15 02:04:57;;;;;;;0.70;0.70;;;2.10;99.90;;;;;;5071872;23;20737;-85
2023/02/15 02:07:27;;;;;;;0.80;0.80;;;2.10;99.90;;;;;;5113931;28;20725;-85
2023/02/15 02:09:53;;;;;;;0.70;0.70;;;2.10;99.90;;;;;;5113495;28;20252;-80
2023/02/15 02:12:22;;;;;;;0.82;0.82;;;2.20;99.90;;;;;;5078470;28;20215;-80
2023/02/15 02:14:49;;;;;;;0.50;0.50;;;2.20;99.90;;;;;;5095559;28;20252;-80
2023/02/15 02:17:54;;;;;;;1.13;1.13;;;2.20;99.90;;;;;;5114063;28;20199;-80
2023/02/15 02:20:54;;;;;;;0.65;0.65;;;2.20;99.90;;;;;;5095252;28;20928;-80
2023/02/15 02:23:40;;;;;;;0.75;0.75;;;2.20;99.90;;;;;;5114078;28;20241;-81
2023/02/15 02:26:34;;;;;;;0.80;0.80;;;2.20;99.90;;;;;;5095847;28;20538;-81
2023/02/15 02:29:30;;;;;;;0.60;0.60;;;2.20;99.90;;;;;;5095271;28;20202;-81
2023/02/15 02:32:19;;;;;;;1.13;1.02;;;2.20;99.90;;;;;;5113220;28;20199;-81
2023/02/15 02:34:50;;;;;;;0.65;0.65;;;2.10;99.90;;;;;;5094122;28;20196;-81
2023/02/15 02:37:21;;;;;;;0.70;0.70;;;2.10;99.90;;;;;;5112924;28;20191;-81
2023/02/15 02:40:12;;;;;;;0.68;0.68;;;2.10;99.90;;;;;;5094813;28;20191;-81
2023/02/15 02:42:46;;;;;;;0.80;0.80;;;2.10;99.90;;;;;;5113071;28;20252;-81
2023/02/15 02:45:32;;;;;;;3.13;1.02;;;2.10;99.90;;;;;;5094691;28;20195;-80
2023/02/15 02:48:13;;;;;;;0.60;0.60;;;2.20;99.90;;;;;;5094714;28;20207;-81
2023/02/15 02:50:40;;;;;;;0.75;0.75;;;2.20;99.90;;;;;;5094524;28;20203;-81
2023/02/15 02:53:06;;;;;;;0.68;0.68;;;2.10;99.90;;;;;;5094676;28;20207;-81
2023/02/15 02:55:55;;;;;;;0.63;0.63;;;2.10;99.90;;;;;;5112714;28;20187;-81
2023/02/15 02:58:33;;;;;;;0.75;0.75;;;2.10;99.90;;;;;;5094426;28;20202;-80
2023/02/15 03:01:43;;;;;;;0.80;0.80;;;2.20;99.90;;;;;;5111968;28;20608;-80
2023/02/15 03:04:17;;;;;;;0.70;0.70;;;2.20;99.90;;;;;;5085136;28;20879;-80
2023/02/15 03:06:49;;;;;;;0.60;0.60;;;2.20;99.90;;;;;;5092434;28;20261;-80
2023/02/15 03:09:34;;;;;;;0.55;0.55;;;2.20;99.90;;;;;;5096032;28;20684;-80
2023/02/15 03:12:03;;;;;;;3.60;1.95;;;2.20;99.90;;;;;;5094434;28;20560;-81
2023/02/15 03:14:29;;;;;;;0.60;0.60;;;2.20;99.90;;;;;;5115272;28;20561;-80
2023/02/15 03:16:56;;;;;;;0.50;0.50;;;2.20;99.90;;;;;;5116802;28;20526;-80
2023/02/15 03:19:27;;;;;;;1.80;1.70;;;2.20;99.90;;;;;;5116694;28;20183;-80
2023/02/15 03:22:03;;;;;;;0.98;0.98;;;2.20;99.90;;;;;;5115437;28;20585;-80
2023/02/15 03:24:34;;;;;;;0.70;0.70;;;2.20;99.90;;;;;;5115280;28;20554;-80
2023/02/15 03:27:05;;;;;;;0.73;0.73;;;2.20;99.90;;;;;;5115280;28;20192;-80
2023/02/15 03:29:33;;;;;;;0.60;0.60;;;2.30;99.90;;;;;;5116520;27;20225;-80
2023/02/15 03:32:02;;;;;;;0.50;0.50;;;2.30;99.90;;;;;;5113522;28;20210;-80
2023/02/15 03:34:28;;;;;;;0.90;0.90;;;2.20;99.90;;;;;;5096034;28;20697;-80
2023/02/15 03:37:14;;;;;;;0.68;0.68;;;2.20;99.90;;;;;;5095985;28;20554;-80
2023/02/15 03:43:11;;;;;;;0.57;0.57;;;2.20;99.90;;;;;;5096189;28;20233;-80
2023/02/15 03:45:54;;;;;;;0.77;0.77;;;2.20;99.90;;;;;;5094462;28;20239;-80
2023/02/15 03:48:23;;;;;;;2.60;1.85;;;2.20;99.90;;;;;;5095657;28;20249;-79
2023/02/15 03:53:35;;;;;;;0.60;0.60;;;2.20;99.90;;;;;;5095622;28;20210;-80
2023/02/15 03:56:00;;;;;;;0.70;0.70;;;2.20;99.90;;;;;;5094488;28;20192;-80
2023/02/15 04:04:15;;;;;;;0.90;0.90;;;2.20;99.90;;;;;;5081752;28;20227;-80
2023/02/15 04:06:41;;;;;;;5.18;1.50;;;2.20;99.90;;;;;;5093290;28;20263;-80
2023/02/15 04:11:51;;;;;;;0.70;0.70;;;2.20;99.90;;;;;;5136634;27;20258;-81
2023/02/15 04:17:00;;;;;;;0.65;0.65;;;2.20;99.90;;;;;;5136284;27;20609;-80
2023/02/15 04:25:12;;;;;;;0.60;0.60;;;2.20;99.90;;;;;;5105965;28;20210;-80
2023/02/15 04:27:40;;;;;;;0.65;0.65;;;2.20;99.90;;;;;;5115329;28;20574;-80
2023/02/15 04:30:07;;;;;;;1.17;1.15;;;2.20;99.90;;;;;;5115341;28;20196;-80
2023/02/15 04:32:33;;;;;;;1.35;1.25;;;2.20;99.90;;;;;;5097029;28;20232;-81
2023/02/15 04:34:59;;;;;;;1.42;1.33;;;2.20;99.90;;;;;;5097062;28;20590;-80
2023/02/15 04:37:25;;;;;;;0.70;0.70;;;2.20;99.90;;;;;;5115130;28;20187;-81
2023/02/15 04:39:51;;;;;;;2.08;1.25;;;2.20;99.90;;;;;;5115369;28;20198;-80
2023/02/15 04:42:17;;;;;;;1.30;1.20;;;2.20;99.90;;;;;;5115143;28;20191;-80
2023/02/15 04:44:43;;;;;;;1.15;1.00;;;2.20;99.90;;;;;;5096734;28;20252;-80
2023/02/15 04:47:09;;;;;;;0.85;0.85;;;2.20;99.90;;;;;;5115183;28;20541;-80
2023/02/15 04:49:34;;;;;;;0.70;0.70;;;2.20;99.90;;;;;;5115050;28;20241;-80
2023/02/15 04:52:00;;;;;;;0.70;0.70;;;2.20;99.90;;;;;;5096651;28;20201;-80
2023/02/15 04:54:26;;;;;;;0.77;0.77;;;2.20;99.90;;;;;;5096513;28;20192;-80
2023/02/15 04:56:52;;;;;;;0.75;0.75;;;2.20;99.90;;;;;;5114894;28;20191;-79
2023/02/15 04:59:20;;;;;;;1.08;1.08;;;2.20;99.90;;;;;;5114833;28;20218;-80
2023/02/15 05:01:46;;;;;;;0.95;0.88;;;2.20;99.90;;;;;;5096514;28;20188;-81
2023/02/15 05:04:11;;;;;;;0.73;0.73;;;2.20;99.90;;;;;;5092720;28;20323;-80
2023/02/15 05:06:37;;;;;;;0.60;0.60;;;2.20;99.90;;;;;;5110045;28;20211;-80
2023/02/15 05:09:03;;;;;;;9.93;1.98;;;2.20;99.90;;;;;;5114698;28;21054;-80
2023/02/15 05:11:29;;;;;;;0.60;0.60;;;2.20;99.90;;;;;;5114538;28;20184;-80
2023/02/15 05:13:54;;;;;;;0.90;0.90;;;2.20;99.90;;;;;;5113250;28;20215;-80
2023/02/15 05:16:20;;;;;;;0.60;0.60;;;2.20;99.90;;;;;;5114568;28;20685;-80
2023/02/15 05:18:46;;;;;;;8.48;1.90;;;2.20;99.90;;;;;;5113211;28;20244;-80
2023/02/15 05:21:13;;;;;;;0.80;0.80;;;2.20;99.90;;;;;;5101808;28;20670;-80
2023/02/15 05:23:39;;;;;;;0.60;0.60;;;2.20;99.90;;;;;;5092608;28;20291;-80
2023/02/15 05:29:11;;;;;;;2.20;1.65;;;2.20;99.90;;;;;;5093808;28;20284;-80
2023/02/15 05:31:37;;;;;;;0.80;0.80;;;2.20;99.90;;;;;;5093932;28;20616;-80
2023/02/15 05:34:04;;;;;;;0.73;0.73;;;2.20;99.90;;;;;;5092547;28;20238;-80
2023/02/15 05:36:30;;;;;;;0.60;0.60;;;2.20;99.90;;;;;;5092778;28;20654;-80
2023/02/15 05:38:56;;;;;;;1.02;1.02;;;2.20;99.90;;;;;;5092497;28;20188;-80
2023/02/15 05:41:21;;;;;;;0.60;0.60;;;2.20;99.90;;;;;;5093630;28;20215;-80
2023/02/15 05:43:47;;;;;;;1.67;1.58;;;2.20;99.90;;;;;;5093806;28;20283;-80
2023/02/15 05:46:13;;;;;;;0.70;0.70;;;2.20;99.90;;;;;;5093728;28;20200;-80
2023/02/15 05:48:39;;;;;;;0.75;0.75;;;2.20;99.90;;;;;;5093557;28;20196;-80
2023/02/15 05:51:15;;;;;;;0.60;0.60;;;2.20;99.90;;;;;;5093514;28;20279;-80
2023/02/15 05:53:41;;;;;;;11.57;2.08;;;2.20;99.90;;;;;;5092274;28;20548;-80
2023/02/15 05:56:08;;;;;;;0.60;0.60;;;2.20;99.90;;;;;;5092269;28;20193;-81
2023/02/15 05:58:38;;;;;;;1.65;1.20;;;2.20;99.90;;;;;;5093177;28;20664;-80
2023/02/15 06:01:12;;;;;;;3.10;1.33;;;2.20;99.90;;;;;;5092468;28;20192;-80
2023/02/15 06:03:38;;;;;;;1.25;1.15;;;2.20;99.90;;;;;;5115867;27;21655;-80
2023/02/15 06:06:04;;;;;;;0.73;0.73;;;2.20;99.90;;;;;;5115878;27;20652;-80
2023/02/15 06:08:31;;;;;;;0.75;0.75;;;2.20;99.90;;;;;;5115647;27;20222;-79
2023/02/15 06:10:57;;;;;;;0.52;0.52;;;2.20;99.90;;;;;;5115680;27;20349;-80
2023/02/15 06:13:22;;;;;;;1.02;1.02;;;2.30;99.90;;;;;;5115520;27;20218;-80
2023/02/15 06:15:48;;;;;;;0.60;0.60;;;2.30;99.90;;;;;;5134136;27;20187;-80
2023/02/15 06:18:14;;;;;;;0.70;0.70;;;2.20;99.90;;;;;;5097132;28;20669;-80
2023/02/15 06:20:40;;;;;;;0.90;0.90;;;2.20;99.90;;;;;;5113194;28;20246;-80
2023/02/15 06:23:06;;;;;;;0.80;0.70;;;2.20;99.90;;;;;;5113224;28;20183;-80
2023/02/15 06:25:31;;;;;;;0.60;0.60;;;2.20;99.90;;;;;;5094942;28;20199;-80
2023/02/15 06:27:57;;;;;;;0.70;0.70;;;2.20;99.90;;;;;;5113328;28;20191;-80
2023/02/15 06:30:23;;;;;;;0.50;0.50;;;2.20;99.90;;;;;;5094886;28;20203;-80
2023/02/15 06:32:48;;;;;;;0.50;0.50;;;2.30;99.90;;;;;;5113040;28;20215;-80
2023/02/15 06:35:14;;;;;;;0.70;0.70;;;2.20;99.90;;;;;;5094884;28;20256;-80
2023/02/15 06:37:40;;;;;;;1.80;1.70;;;2.30;99.90;;;;;;5113024;28;20183;-80
2023/02/15 06:40:07;;;;;;;1.60;1.50;;;2.20;99.90;;;;;;5094886;28;20224;-80
2023/02/15 06:42:32;;;;;;;1.63;1.30;;;2.30;99.90;;;;;;5112321;28;20211;-80
2023/02/15 06:45:00;;;;;;;1.50;1.40;;;2.20;99.90;;;;;;5094761;28;20200;-80
2023/02/15 06:47:25;;;;;;;0.60;0.60;;;2.30;99.90;;;;;;5094489;28;20232;-80
2023/02/15 06:49:51;;;;;;;1.13;1.13;;;2.20;99.90;;;;;;5113034;28;20273;-80
2023/02/15 06:52:17;;;;;;;1.30;1.20;;;2.30;99.90;;;;;;5112901;28;20620;-80
2023/02/15 06:54:43;;;;;;;1.25;1.20;;;2.30;99.90;;;;;;5112924;28;20563;-80
2023/02/15 06:57:09;;;;;;;2.38;1.67;;;2.30;99.90;;;;;;5113295;28;20195;-80
2023/02/15 06:59:35;;;;;;;2.50;1.45;;;2.30;99.90;;;;;;5132499;28;20675;-80
2023/02/15 07:02:00;;;;;;;0.60;0.60;;;2.30;99.90;;;;;;5105763;28;20195;-80
2023/02/15 07:04:28;;;;;;;0.73;0.73;;;2.20;99.90;;;;;;5094251;28;20651;-80
2023/02/15 07:06:54;;;;;;;0.77;0.77;;;2.20;99.90;;;;;;5112864;28;20260;-77
2023/02/15 07:09:20;;;;;;;0.70;0.70;;;2.20;99.90;;;;;;5112736;28;20726;-78
2023/02/15 07:14:29;;;;;;;0.60;0.60;;;2.30;99.90;;;;;;5112974;28;20233;-77
2023/02/15 07:16:55;;;;;;;7.07;2.05;;;2.30;99.90;;;;;;5094648;28;20196;-77
2023/02/15 07:19:21;;;;;;;0.60;0.60;;;2.30;99.90;;;;;;5094462;28;20188;-77
2023/02/15 07:21:46;;;;;;;0.82;0.82;;;2.30;99.90;;;;;;5112940;28;20245;-76
2023/02/15 07:24:13;;;;;;;0.80;0.80;;;2.30;99.90;;;;;;5112834;28;20208;-77
2023/02/15 07:26:39;;;;;;;0.63;0.63;;;2.30;99.90;;;;;;5094351;28;20286;-76
2023/02/15 07:29:05;;;;;;;1.05;1.05;;;2.30;99.90;;;;;;5112829;28;20225;-77
2023/02/15 07:31:31;;;;;;;0.60;0.60;;;2.30;99.90;;;;;;5094268;28;20733;-77
2023/02/15 07:33:56;;;;;;;0.85;0.85;;;2.30;99.90;;;;;;5094290;28;20298;-77
2023/02/15 07:36:22;;;;;;;3.95;2.05;;;2.30;99.90;;;;;;5106276;28;20275;-77
2023/02/15 07:38:48;;;;;;;0.60;0.60;;;2.30;99.90;;;;;;5074079;28;20599;-76
2023/02/15 07:41:15;;;;;;;0.80;0.80;;;2.30;99.90;;;;;;5092398;28;20192;-77
2023/02/15 07:43:43;;;;;;;2.15;1.83;;;2.30;99.90;;;;;;5074075;28;20219;-76
2023/02/15 07:46:12;;;;;;;0.90;0.90;;;2.30;99.90;;;;;;5074110;28;20685;-77
2023/02/15 07:48:39;;;;;;;0.60;0.60;;;2.30;99.90;;;;;;5074202;28;20196;-77
2023/02/15 07:51:08;;;;;;;0.70;0.70;;;2.40;99.90;;;;;;5085097;28;20206;-77
2023/02/15 07:53:33;;;;;;;0.80;0.80;;;2.40;99.90;;;;;;5115301;27;20698;-77
2023/02/15 07:56:01;;;;;;;0.70;0.70;;;2.40;99.90;;;;;;5118378;27;20279;-77
2023/02/15 07:58:50;;;;;;;0.60;0.60;;;2.30;99.90;;;;;;5118091;27;20197;-77
2023/02/15 08:01:13;;;;;;;1.63;1.48;;;2.40;99.90;;;;;;5136440;27;20191;-77
2023/02/15 08:03:39;;;;;;;1.02;1.02;;;2.40;99.90;;;;;;5136229;27;20194;-76
2023/02/15 08:06:05;;;;;;;1.67;1.58;;;2.40;99.90;;;;;;5118030;27;20203;-77
2023/02/15 08:08:33;;;;;;;1.15;1.00;;;2.40;99.90;;;;;;5118116;27;20199;-77
2023/02/15 08:13:59;;;;;;;1.77;0.80;;;2.40;99.90;;;;;;5101582;28;20260;-76
2023/02/15 08:16:28;;;;;;;0.70;0.70;;;2.40;99.90;;;;;;5097496;28;20229;-77
2023/02/15 08:18:55;;;;;;;0.68;0.68;;;2.40;99.90;;;;;;5097671;28;20196;-77
2023/02/15 08:21:22;;;;;;;0.80;0.80;;;2.40;99.90;;;;;;5115579;28;20230;-76
2023/02/15 08:23:48;;;;;;;9.63;1.83;;;2.40;99.90;;;;;;5115654;28;20733;-79
2023/02/15 08:26:14;;;;;;;0.60;0.60;;;2.40;99.90;;;;;;5115660;28;20219;-79
2023/02/15 08:28:40;;;;;;;0.60;0.60;;;2.40;99.90;;;;;;5115224;28;20195;-79
2023/02/15 08:31:11;;;;;;;1.98;1.77;;;2.50;99.90;;;;;;5115585;28;20192;-79
2023/02/15 08:33:39;;;;;;;3.13;1.80;;;2.50;99.90;;;;;;5096891;28;20681;-79
2023/02/15 08:36:07;;;;;;;0.70;0.70;;;2.50;99.90;;;;;;5097344;28;20317;-79
2023/02/15 08:38:33;;;;;;;1.60;1.50;;;2.50;99.90;;;;;;5096745;28;20203;-79
2023/02/15 08:41:16;;;;;;;2.35;1.08;;;2.50;99.90;;;;;;5115256;28;20684;-79
2023/02/15 08:43:43;;;;;;;0.70;0.70;;;2.50;99.90;;;;;;5115189;28;20677;-79
2023/02/15 08:46:10;;;;;;;0.77;0.77;;;2.50;99.90;;;;;;5115049;28;20661;-79
2023/02/15 08:48:36;;;;;;;0.90;0.90;;;2.50;99.90;;;;;;5096674;28;20195;-79
2023/02/15 08:51:14;;;;;;;0.65;0.65;;;2.50;99.90;;;;;;5107930;27;20618;-79
2023/02/15 08:53:41;;;;;;;1.52;1.45;;;2.50;99.90;;;;;;5135350;27;21285;-79
2023/02/15 08:56:08;;;;;;;1.40;1.30;;;2.50;99.90;;;;;;5117093;27;20197;-80
2023/02/15 08:58:35;;;;;;;0.70;0.70;;;2.50;99.90;;;;;;5116760;27;20204;-79
2023/02/15 09:01:03;;;;;;;12.18;1.95;;;2.50;99.90;;;;;;5134743;27;20183;-79
2023/02/15 09:03:29;;;;;;;0.95;0.95;;;2.50;99.90;;;;;;5114608;28;20222;-79
2023/02/15 09:06:00;;;;;;;0.90;0.90;;;2.60;99.90;;;;;;5095897;28;20653;-79
2023/02/15 09:08:27;;;;;;;0.68;0.68;;;2.50;99.90;;;;;;5114575;28;20252;-79
2023/02/15 09:10:52;;;;;;;0.60;0.60;;;2.60;99.90;;;;;;5096309;28;20654;-79
2023/02/15 09:13:18;;;;;;;3.63;0.80;;;2.60;99.90;;;;;;5114510;28;20260;-80
2023/02/15 09:15:44;;;;;;;1.67;1.58;;;2.50;99.90;;;;;;5114702;28;20542;-79
2023/02/15 09:18:12;;;;;;;0.50;0.50;;;2.60;99.90;;;;;;5114539;28;20188;-79
2023/02/15 09:20:37;;;;;;;4.22;1.38;;;2.60;99.90;;;;;;5096086;28;21294;-79
2023/02/15 09:23:03;;;;;;;0.50;0.50;;;2.60;99.90;;;;;;5096070;28;20637;-79
2023/02/15 09:25:29;;;;;;;2.42;2.13;;;2.60;99.90;;;;;;5114106;28;20203;-80
2023/02/15 09:27:55;;;;;;;0.88;0.88;;;2.60;99.90;;;;;;5114681;28;20206;-79
2023/02/15 09:30:20;;;;;;;0.70;0.70;;;2.60;99.90;;;;;;5096062;28;20200;-80
2023/02/15 09:32:47;;;;;;;0.57;0.57;;;2.60;99.90;;;;;;5095803;28;20211;-79
2023/02/15 09:35:13;;;;;;;0.70;0.70;;;2.60;99.90;;;;;;5095941;28;20191;-79
2023/02/15 09:37:39;;;;;;;1.23;1.13;;;2.60;99.90;;;;;;5114072;28;20253;-79
2023/02/15 09:40:05;;;;;;;1.65;1.02;;;2.60;99.90;;;;;;5095799;28;20195;-80
2023/02/15 09:42:54;;;;;;;0.60;0.60;;;2.60;99.90;;;;;;5113653;28;20541;-79
2023/02/15 09:45:49;;;;;;;0.70;0.70;;;2.60;99.90;;;;;;5113972;28;20191;-80
2023/02/15 09:48:42;;;;;;;0.45;0.45;;;2.60;99.90;;;;;;5096430;28;20217;-79
2023/02/15 09:51:39;;;;;;;0.70;0.70;;;2.70;99.90;;;;;;5105502;28;20264;-79
2023/02/15 09:54:23;;;;;;;0.70;0.70;;;2.60;99.90;;;;;;5113830;28;20235;-80
2023/02/15 09:56:55;;;;;;;0.70;0.70;;;2.60;99.90;;;;;;5113875;28;20183;-79
2023/02/15 09:59:32;;;;;;;0.70;0.70;;;2.60;99.90;;;;;;5113592;28;20198;-78
2023/02/15 10:02:14;;;;;;;1.10;1.10;;;2.70;99.90;;;;;;5091875;28;20196;-79
2023/02/15 10:04:43;;;;;;;0.70;0.70;;;2.70;99.90;;;;;;5092841;28;20251;-79
2023/02/15 10:07:20;;;;;;;1.30;1.20;;;2.70;99.90;;;;;;5105289;28;20231;-79
2023/02/15 10:09:52;;;;;;;1.20;1.13;;;2.70;99.90;;;;;;5113644;28;20558;-79
2023/02/15 10:12:35;;;;;;;0.50;0.50;;;2.70;99.90;;;;;;5095170;28;20215;-78
2023/02/15 10:15:42;;;;;;;1.00;1.00;;;2.70;99.90;;;;;;5113640;28;20597;-79
2023/02/15 10:18:35;;;;;;;0.73;0.73;;;2.80;99.90;;;;;;5094757;28;20724;-78
2023/02/15 10:21:14;;;;;;;0.80;0.80;;;2.80;99.90;;;;;;5113369;28;20202;-78
2023/02/15 10:24:01;;;;;;;0.90;0.90;;;2.80;99.90;;;;;;5113286;28;20236;-77
2023/02/15 10:26:49;;;;;;;0.95;0.95;;;2.80;99.90;;;;;;5095037;28;20195;-79
2023/02/15 10:29:22;;;;;;;0.50;0.50;;;2.80;99.90;;;;;;5113435;28;20202;-79
2023/02/15 10:31:59;;;;;;;0.80;0.80;;;2.80;99.90;;;;;;5113378;28;20264;-79
2023/02/15 10:34:39;;;;;;;0.80;0.80;;;2.80;99.90;;;;;;5094766;28;20203;-79
2023/02/15 10:37:23;;;;;;;0.80;0.80;;;2.80;99.90;;;;;;5113118;28;20653;-79
2023/02/15 10:40:09;;;;;;;0.40;0.40;;;2.80;99.90;;;;;;5094699;28;20304;-78
2023/02/15 10:42:41;;;;;;;0.57;0.57;;;2.90;99.90;;;;;;5098413;28;20261;-78
2023/02/15 10:45:16;;;;;;;0.70;0.70;;;2.90;99.90;;;;;;5094706;28;20196;-79
2023/02/15 10:47:59;;;;;;;0.60;0.60;;;2.90;99.90;;;;;;5127553;27;20249;-78
2023/02/15 10:50:46;;;;;;;0.88;0.88;;;2.90;99.90;;;;;;5133386;27;20190;-78
2023/02/15 10:53:20;;;;;;;1.02;1.02;;;2.90;99.90;;;;;;5133461;28;20569;-78
2023/02/15 10:55:59;;;;;;;1.65;1.55;;;2.90;99.90;;;;;;5133464;28;20190;-79
2023/02/15 10:58:59;;;;;;;0.85;0.73;;;2.80;99.90;;;;;;5114908;28;20195;-78
2023/02/15 11:01:30;;;;;;;1.75;1.65;;;2.80;99.90;;;;;;5107339;28;20662;-78
2023/02/15 11:04:41;;;;;;;0.60;0.60;;;2.80;99.90;;;;;;5091850;28;20226;-79
2023/02/15 11:07:23;;;;;;;0.90;0.75;;;2.80;99.90;;;;;;5093978;28;20203;-78
2023/02/15 11:10:15;;;;;;;2.17;1.63;;;2.80;99.90;;;;;;5112816;28;20199;-78
2023/02/15 11:12:43;;;;;;;0.60;0.60;;;2.80;99.90;;;;;;5073575;28;20262;-78
2023/02/15 11:15:27;;;;;;;1.50;1.40;;;2.80;99.90;;;;;;5094727;28;20199;-78
2023/02/15 11:18:05;;;;;;;0.60;0.60;;;2.80;99.90;;;;;;5094533;28;20199;-78
2023/02/15 11:20:55;;;;;;;0.60;0.60;;;2.80;99.90;;;;;;5094531;28;20202;-78
2023/02/15 11:23:23;;;;;;;0.55;0.55;;;2.80;99.90;;;;;;5074248;28;20228;-78
2023/02/15 11:26:24;;;;;;;0.60;0.60;;;2.80;99.90;;;;;;5092439;28;20196;-78
2023/02/15 11:29:07;;;;;;;0.50;0.50;;;2.80;99.90;;;;;;5069750;28;20216;-78
2023/02/15 11:31:50;;;;;;;0.70;0.70;;;2.80;99.90;;;;;;5077904;28;20650;-78
2023/02/15 11:34:37;;;;;;;1.88;1.30;;;2.80;99.90;;;;;;5096287;28;20249;-78
2023/02/15 11:37:13;;;;;;;0.95;0.95;;;2.80;99.90;;;;;;5097206;28;20195;-78
2023/02/15 11:39:39;;;;;;;0.95;0.95;;;2.70;99.90;;;;;;5116308;28;20191;-78
2023/02/15 11:42:14;;;;;;;0.60;0.60;;;2.70;99.90;;;;;;5098082;28;20231;-79
2023/02/15 11:44:53;;;;;;;0.63;0.63;;;2.70;99.90;;;;;;5098812;28;20243;-89
2023/02/15 11:47:18;;;;;;;0.70;0.70;;;2.70;99.90;;;;;;5111138;27;20696;-88
2023/02/15 11:49:45;;;;;;;0.60;0.60;;;2.70;99.90;;;;;;5119576;27;20201;-89
2023/02/15 11:52:15;;;;;;;1.05;0.98;;;2.70;99.90;;;;;;5119834;27;20292;-88
2023/02/15 11:54:44;;;;;;;0.57;0.57;;;2.80;99.90;;;;;;5137631;27;20661;-89
2023/02/15 11:57:22;;;;;;;0.50;0.50;;;2.70;99.90;;;;;;5138000;27;20187;-89
2023/02/15 11:59:57;;;;;;;0.68;0.68;;;2.70;99.90;;;;;;5123290;27;20222;-89
2023/02/15 12:02:26;;;;;;;5.07;1.27;;;2.80;99.90;;;;;;5116713;28;20194;-87
2023/02/15 12:05:04;;;;;;;5.68;1.83;;;2.70;99.90;;;;;;5117251;28;20246;-88
2023/02/15 12:07:42;;;;;;;0.63;0.63;;;2.70;99.90;;;;;;5117086;28;20701;-87
2023/02/15 12:10:28;;;;;;;0.70;0.70;;;2.70;99.90;;;;;;5116993;28;20191;-88
2023/02/15 12:13:15;;;;;;;0.65;0.65;;;2.60;99.90;;;;;;5098560;28;20210;-87
2023/02/15 12:15:51;;;;;;;1.95;1.45;;;2.70;99.90;;;;;;5118799;28;20275;-89
2023/02/15 12:18:44;;;;;;;0.50;0.50;;;2.70;99.90;;;;;;5117129;28;20183;-89
2023/02/15 12:21:15;;;;;;;0.70;0.70;;;2.70;99.90;;;;;;5116708;28;20183;-89
2023/02/15 12:23:50;;;;;;;0.60;0.60;;;2.70;99.90;;;;;;5098541;28;20195;-89
2023/02/15 12:26:31;;;;;;;1.27;1.17;;;2.70;99.90;;;;;;5117082;28;20191;-89
2023/02/15 12:29:01;;;;;;;0.50;0.50;;;2.70;99.90;;;;;;5098745;28;20223;-89
2023/02/15 12:31:40;;;;;;;2.63;1.60;;;2.70;99.90;;;;;;5098345;28;20191;-88
2023/02/15 12:34:33;;;;;;;1.35;1.25;;;2.70;99.90;;;;;;5116312;28;20204;-86
2023/02/15 12:37:08;;;;;;;1.10;1.00;;;2.70;99.90;;;;;;5116542;28;20187;-89
2023/02/15 12:39:34;;;;;;;0.93;0.93;;;2.70;99.90;;;;;;5097102;28;20201;-89
2023/02/15 12:42:14;;;;;;;1.05;1.05;;;2.80;99.90;;;;;;5116817;28;20274;-89
2023/02/15 12:45:25;;;;;;;0.93;0.93;;;2.70;99.90;;;;;;5077615;28;20312;-89
2023/02/15 12:48:38;;;;;;;1.25;1.15;;;2.70;99.90;;;;;;5078086;28;20200;-86
2023/02/15 12:51:09;;;;;;;0.85;0.85;;;2.70;99.90;;;;;;5082487;28;20359;-88
2023/02/15 12:53:36;;;;;;;0.60;0.60;;;2.70;99.90;;;;;;5116227;28;20207;-88
2023/02/15 12:56:05;;;;;;;0.70;0.70;;;2.80;99.90;;;;;;5115370;28;20191;-86
2023/02/15 12:58:41;;;;;;;0.57;0.57;;;2.70;99.90;;;;;;5115419;28;20238;-87
2023/02/15 13:01:14;;;;;;;0.60;0.60;;;2.70;99.90;;;;;;5096739;28;20286;-87
2023/02/15 13:03:54;;;;;;;1.42;1.33;;;2.70;99.90;;;;;;5115243;28;20230;-88
2023/02/15 13:06:21;;;;;;;0.82;0.82;;;2.60;99.90;;;;;;5097037;28;20207;-87
2023/02/15 13:08:53;;;;;;;2.22;1.85;;;2.70;99.90;;;;;;5097160;28;20198;-88
2023/02/15 13:11:33;;;;;;;0.57;0.57;;;2.60;99.90;;;;;;5098011;28;20210;-87
2023/02/15 13:14:02;;;;;;;0.80;0.80;;;2.60;99.90;;;;;;5115854;28;20219;-87
2023/02/15 13:16:31;;;;;;;0.70;0.70;;;2.60;99.90;;;;;;5097206;28;20191;-86
2023/02/15 13:18:58;;;;;;;1.10;0.95;;;2.60;99.90;;;;;;5115648;28;20232;-89
2023/02/15 13:21:30;;;;;;;0.63;0.63;;;2.50;99.90;;;;;;5115612;28;20219;-88
2023/02/15 13:24:01;;;;;;;0.50;0.50;;;2.50;99.90;;;;;;5115600;28;20188;-88
2023/02/15 13:26:31;;;;;;;1.35;1.27;;;2.50;99.90;;;;;;5115428;28;20718;-88
2023/02/15 13:29:01;;;;;;;0.80;0.80;;;2.50;99.90;;;;;;5115393;28;20553;-88
2023/02/15 13:31:32;;;;;;;0.60;0.60;;;2.50;99.90;;;;;;5115383;28;20250;-87
2023/02/15 13:34:14;;;;;;;0.43;0.43;;;2.50;99.90;;;;;;5115254;28;20207;-88
2023/02/15 13:37:05;;;;;;;0.68;0.68;;;2.50;99.90;;;;;;5096945;28;20210;-89
2023/02/15 13:39:39;;;;;;;0.70;0.70;;;2.50;99.90;;;;;;5123669;27;20248;-87
2023/02/15 13:42:26;;;;;;;0.68;0.68;;;2.50;99.90;;;;;;5135618;27;20696;-87
2023/02/15 13:45:26;;;;;;;0.70;0.70;;;2.60;99.90;;;;;;5117358;27;20197;-87
2023/02/15 13:48:19;;;;;;;5.70;1.17;;;2.60;99.90;;;;;;5120956;27;20202;-88
2023/02/15 13:50:56;;;;;;;0.93;0.90;;;2.50;99.90;;;;;;5097123;28;20241;-88
2023/02/15 13:53:40;;;;;;;1.45;1.10;;;2.50;99.90;;;;;;5114552;28;20195;-88
2023/02/15 13:56:21;;;;;;;2.38;1.95;;;2.50;99.90;;;;;;5115053;28;20637;-87